Tiempo atmosférico en la estación meteorológica de Barbate, Cádiz (4 m.)



Fecha
DESCASC
Temp. máxima en grados centígrados (hora)
DESCASC
Temp. mínima en grados centígrados (hora)
DESCASC
Temp. media en grados centígrados
DESCASC
Racha de viento máxima en m/sg (hora)
DESCASC
Velocidad máxima media en intervalos de 10 minutos(hora)
DESCASC
Precipitaciones diarias en mm
DESCASC
Precipitaciones de 00:00 a 06:00 en mm
DESCASC
Precipitaciones de 06:00 a 12:00 en mm
DESCASC
Precipitaciones de 12:00 a 18:00 en mm
DESCASC
Precipitaciones de 18:00 a 24:00 en mm
DESCASC
22-01-2020 14.1 (13:40) 8.6 (05:30) 11.4 15.56 (15:40) 13.06 (15:40) 7 0 1.4 2.2 3.4
21-01-2020 16.1 (13:30) 5 (09:00) 10.6 7.22 (01:30) 6.11 (15:00) 0.2 0 0 0 0.2
20-01-2020 12.8 (15:30) 6.1 (08:20) 9.5 10.56 (00:10) 7.78 (19:40) 0 0 0 0 0
19-01-2020 16.5 (00:00) 9.6 (00:00) 13.1 12.5 (17:20) 7.78 (01:30) 2.6 2.4 0 0.2 0
18-01-2020 16.5 (23:40) 9.1 (00:00) 12.8 11.94 (21:10) 9.44 (21:10) 2.4 0 0 0 2.4
17-01-2020 17.5 (13:00) 6.6 (00:00) 12 5.28 (14:40) 4.44 (14:40) 0 0 0 0 0
16-01-2020 -- (--) -- (--) -- 6.11 (15:40) 5.28 (13:20) 0 0 0 0 0
15-01-2020 19.1 (16:20) 6.1 (00:00) 12.6 6.94 (13:00) 5.83 (10:50) 0 0 0 0 0
14-01-2020 17.1 (16:10) 6.7 (00:00) 11.9 5.28 (16:20) 4.44 (16:20) 0 0 0 0 0
13-01-2020 19.4 (13:30) 8.2 (00:00) 13.8 6.39 (16:40) 5 (16:30) 0 0 0 0 0
12-01-2020 18.4 (15:40) 9 (00:00) 13.7 7.5 (07:50) 5.28 (07:50) 0 0 0 0 0
11-01-2020 17.5 (13:50) 6.3 (00:00) 11.9 9.17 (15:30) 6.39 (17:00) 0 0 0 0 0
10-01-2020 15.9 (16:20) 6.5 (00:00) 11.2 6.67 (16:00) 3.89 (19:00) 0 0 0 0 0
09-01-2020 19.1 (16:00) 9.4 (00:00) 14.3 7.5 (05:40) 4.44 (15:20) 0 0 0 0 0
08-01-2020 18.3 (14:10) 4.9 (00:00) 11.6 4.72 (01:40) 3.89 (16:00) 0 0 0 0 0
07-01-2020 18.2 (15:00) 9.5 (00:00) 13.9 11.67 (09:40) 9.17 (09:40) 0 0 0 0 0
06-01-2020 16.7 (16:30) 10.1 (00:00) 13.4 9.17 (12:10) 6.11 (12:10) 0 0 0 0 0
05-01-2020 17.7 (13:10) 10.5 (00:00) 14.1 11.67 (13:50) 7.78 (15:40) 0 0 0 0 0
04-01-2020 16.5 (16:00) 5.4 (00:00) 11 6.39 (17:00) 5.28 (17:00) 0 0 0 0 0
03-01-2020 17.4 (15:40) 7 (00:00) 12.2 7.22 (16:00) 4.44 (16:00) 0 0 0 0 0
02-01-2020 18.6 (13:50) 8.9 (00:00) 13.8 9.17 (15:40) 7.78 (15:40) 0 0 0 0 0
01-01-2020 20.2 (13:20) 10.2 (00:00) 15.2 8.61 (05:30) 6.11 (15:20) 0 0 0 0 0
31-12-2019 17.5 (14:20) 12.6 (00:00) 15.1 18.06 (17:00) 10.83 (13:50) 0 0 0 0 0
30-12-2019 -- (--) -- (--) -- -- (--) -- (--) -- 0 0 0 --
29-12-2019 17.6 (14:50) 14 (00:00) 15.8 24.72 (12:10) 12.22 (05:20) 0 0 0 0 0
28-12-2019 18.4 (14:20) 15.2 (00:00) 16.8 24.17 (21:20) 12.78 (04:50) 0 0 0 0 0
27-12-2019 19.7 (00:40) 15.6 (00:00) 17.7 16.94 (23:20) 12.5 (23:20) 0 0 0 0 0
26-12-2019 21.7 (14:00) 9.6 (00:00) 15.7 10 (23:30) 6.67 (23:30) 0 0 0 0 0
25-12-2019 22.3 (12:20) 11.5 (00:00) 16.9 10 (00:30) 5.28 (00:30) 0 0 0 0 0

Gráficas

Temp. máximas Temp. mínimas Temp. medias Precipitaciones Rachas de viento máximas Velocidades máximas media en intervalos de 10 minutos

Datos horarios

Fecha y hora oficial Temperatura (ºC) Velocidad del viento (km/h) Dirección del viento Racha (km/h) Dirección de racha Precipitación (mm) Presión (hPa) Tendencia (hPa) Humedad (%)
2020-01-23 23:00:00 11.9 29 Sur 34 Sur 8 -- -- 91
2020-01-23 22:00:00 11.8 13 Sudeste 35 Sudeste 3 -- -- 90
2020-01-23 21:00:00 12.2 9 Sur 49 Sur 5.2 -- -- 91
2020-01-23 20:00:00 11.9 7 Sudeste 32 Sur 7.2 -- -- 91
2020-01-23 19:00:00 12.2 19 Sur 27 Oeste 3 -- -- 90
2020-01-23 18:00:00 11.3 29 Sudoeste 50 Sudoeste 3.4 -- -- 89
2020-01-23 17:00:00 12.3 26 Sudoeste 45 Sudoeste 2 -- -- 84
2020-01-23 16:00:00 14.8 33 Sur 44 Sur 0 -- -- 73
2020-01-23 15:00:00 15 35 Sur 42 Sur 0.2 -- -- 72
2020-01-23 14:00:00 14.6 35 Sudoeste 44 Sur 0 -- -- 74
2020-01-23 13:00:00 14.8 37 Sur 46 Sur 0.2 -- -- 71
2020-01-23 12:00:00 14.1 37 Sur 45 Sur 0 -- -- 76
2020-01-23 11:00:00 14.2 36 Sur 43 Sur 0 -- -- 74
2020-01-23 10:00:00 13.5 35 Sur 40 Sur 0 -- -- 77
2020-01-23 09:00:00 12.3 33 Sur 54 Sur 1.2 -- -- 82
2020-01-23 08:00:00 12.7 43 Sur 53 Sur 0.6 -- -- 84
2020-01-23 07:00:00 13.2 28 Sur 43 Sur 0.2 -- -- 78
2020-01-23 06:00:00 13.7 31 Sur 39 Sur 0.6 -- -- 75
2020-01-23 05:00:00 13.2 23 Sur 36 Sur 0 -- -- 78
2020-01-23 04:00:00 13.7 27 Sur 33 Sur 0 -- -- 73
2020-01-23 03:00:00 13.6 30 Sur 37 Sudeste 0 -- -- 75
2020-01-23 02:00:00 13.5 28 Sur 38 Sur 0 -- -- 75
2020-01-23 01:00:00 13.2 33 Sur 40 Sudeste 0 -- -- 76
2020-01-23 00:00:00 12.7 29 Sur 45 Sudeste 0.8 -- -- 81
2020-01-22 23:00:00 12.8 36 Sur 45 Sur 0.2 -- -- 81
2020-01-22 22:00:00 11.4 20 Sudeste 30 Sudeste 0.4 -- -- 83
2020-01-22 21:00:00 11.5 18 Sudeste 31 Sur 1.4 -- -- 84
2020-01-22 20:00:00 12.1 27 Sur 42 Sur 0.4 -- -- 78
2020-01-22 19:00:00 12.9 36 Sur 48 Sur 0.2 -- -- 76
2020-01-22 18:00:00 13.7 35 Sur 44 Sur 0 -- -- 68
2020-01-22 17:00:00 13.5 33 Sur 42 Sur 0.4 -- -- 72
2020-01-22 16:00:00 11.7 35 Sudoeste 56 Sudoeste 1.2 -- -- 89
2020-01-22 15:00:00 13.3 28 Sur 40 Sudeste 0.6 -- -- 79
2020-01-22 14:00:00 14 23 Sur 31 Sur 0 -- -- 71
2020-01-22 13:00:00 13.5 23 Sudoeste 36 Sudoeste 0 -- -- 74
2020-01-22 12:00:00 11.4 6 Sudeste 27 Sudoeste 0.2 -- -- 88
2020-01-22 11:00:00 10.4 4 Nordeste 19 Oeste 0.8 -- -- 89
2020-01-22 10:00:00 9.5 7 Norte 14 Nordeste 0 -- -- 89
2020-01-22 09:00:00 8.9 7 Norte 13 Norte 0 -- -- 89
2020-01-22 08:00:00 8.8 7 Norte 14 Norte 0 -- -- 89
2020-01-22 07:00:00 8.7 9 Norte 14 Norte 0.4 -- -- 89
2020-01-22 06:00:00 8.7 6 Norte 13 Norte 0 -- -- 88
2020-01-22 05:00:00 8.9 7 Norte 11 Norte 0 -- -- 85
2020-01-22 04:00:00 8.9 6 Norte 10 Norte 0 -- -- 83
2020-01-22 03:00:00 9.1 6 Norte 9 Norte 0 -- -- 83
2020-01-22 02:00:00 9.4 5 Norte 7 Norte 0 -- -- 79
2020-01-22 01:00:00 9.4 3 Nordeste 8 Nordeste 0 -- -- 81
2020-01-22 00:00:00 9.7 0 Calma -- -- 0 -- -- 83
2020-01-21 23:00:00 9.8 0 Calma 8 Sudeste 0 -- -- 80
2020-01-21 22:00:00 10.6 2 Sudeste 9 Noroeste 0.2 -- -- 74
2020-01-21 21:00:00 11.1 6 Norte 13 Noroeste 0 -- -- 62
2020-01-21 20:00:00 11.3 9 Noroeste 13 Noroeste 0 -- -- 62
2020-01-21 19:00:00 11.4 8 Noroeste 12 Norte 0 -- -- 62
2020-01-21 18:00:00 12.6 8 Norte 17 Norte 0 -- -- 60
2020-01-21 17:00:00 13.8 6 Noroeste 22 Oeste 0 -- -- 56
2020-01-21 16:00:00 14 21 Oeste 25 Sudoeste 0 -- -- 62
2020-01-21 15:00:00 14.2 22 Oeste 26 Sudoeste 0 -- -- 60
2020-01-21 14:00:00 14.7 20 Sudoeste 25 Oeste 0 -- -- 61
2020-01-21 13:00:00 15.6 5 Sudoeste 12 Sudoeste 0 -- -- 56
2020-01-21 12:00:00 12 7 Nordeste 15 Nordeste 0 -- -- 67
2020-01-21 11:00:00 9.3 10 Nordeste 22 Nordeste 0 -- -- 74
2020-01-21 10:00:00 7.5 11 Nordeste 16 Nordeste 0 -- -- 80
2020-01-21 09:00:00 5 11 Nordeste 15 Nordeste 0 -- -- 90
2020-01-21 08:00:00 5.2 9 Norte 14 Norte 0 -- -- 88
2020-01-21 07:00:00 5.8 7 Norte 12 Nordeste 0 -- -- 86
2020-01-21 06:00:00 6.8 8 Norte 15 Nordeste 0 -- -- 84
2020-01-21 05:00:00 8 10 Nordeste 16 Norte 0 -- -- 82
2020-01-21 04:00:00 9.4 6 Norte 15 Nordeste 0 -- -- 81
2020-01-21 03:00:00 9.5 10 Nordeste 19 Norte 0 -- -- 80
2020-01-21 02:00:00 9.8 14 Nordeste 26 Nordeste 0 -- -- 77
2020-01-21 01:00:00 9.6 10 Nordeste 18 Norte 0 -- -- 72
2020-01-21 00:00:00 9.5 10 Nordeste 16 Norte 0 -- -- 72
2020-01-20 23:00:00 9.6 8 Norte 14 Norte 0 -- -- 68
2020-01-20 22:00:00 9.7 10 Norte 20 Norte 0 -- -- 67
2020-01-20 21:00:00 9 8 Norte 22 Este 0 -- -- 73
2020-01-20 20:00:00 8.7 16 Nordeste 36 Nordeste 0 -- -- 74
2020-01-20 19:00:00 9.6 21 Nordeste 34 Nordeste 0 -- -- 69
2020-01-20 18:00:00 10.9 24 Nordeste 33 Este 0 -- -- 66
2020-01-20 17:00:00 12.5 21 Este 31 Este 0 -- -- 61
2020-01-20 16:00:00 12.1 17 Este 30 Este 0 -- -- 62
2020-01-20 15:00:00 12.3 14 Nordeste 20 Nordeste 0 -- -- 56
2020-01-20 14:00:00 11.8 11 Nordeste 18 Nordeste 0 -- -- 54
2020-01-20 13:00:00 10.6 13 Nordeste 23 Nordeste 0 -- -- 62
2020-01-20 12:00:00 9.8 15 Norte 24 Nordeste 0 -- -- 60
2020-01-20 11:00:00 8.2 9 Norte 18 Norte 0 -- -- 70
2020-01-20 10:00:00 6.7 10 Norte 18 Norte 0 -- -- 77
2020-01-20 09:00:00 6.1 10 Norte 19 Norte 0 -- -- 76
2020-01-20 08:00:00 6.3 10 Norte 18 Norte 0 -- -- 74
2020-01-20 07:00:00 6.9 7 Norte 28 Norte 0 -- -- 75
2020-01-20 06:00:00 7.1 9 Norte 23 Norte 0 -- -- 76
2020-01-20 05:00:00 7.8 13 Norte 25 Norte 0 -- -- 71
2020-01-20 04:00:00 8.1 15 Nordeste 27 Nordeste 0 -- -- 74
2020-01-20 03:00:00 8.3 13 Norte 35 Nordeste 0 -- -- 71
2020-01-20 02:00:00 8.1 14 Norte 24 Norte 0 -- -- 76
2020-01-20 01:00:00 9 12 Norte 38 Norte 0 -- -- 72
2020-01-20 00:00:00 9.6 23 Norte 41 Norte 0 -- -- 69
2020-01-19 23:00:00 10.3 18 Norte 33 Norte 0 -- -- 65
2020-01-19 22:00:00 10.6 13 Norte 28 Norte 0 -- -- 67
2020-01-19 21:00:00 10.7 10 Norte 22 Norte 0 -- -- 67
2020-01-19 20:00:00 10.8 9 Norte 15 Norte 0 -- -- 73
2020-01-19 19:00:00 11.4 6 Norte 12 Norte 0 -- -- 76
2020-01-19 18:00:00 12 6 Norte 45 Nordeste 0.2 -- -- 76
2020-01-19 17:00:00 14.7 8 Norte 28 Noroeste 0 -- -- 60
2020-01-19 16:00:00 15.2 14 Norte 29 Norte 0 -- -- 56
2020-01-19 15:00:00 15.6 16 Norte 27 Norte 0 -- -- 55
2020-01-19 14:00:00 15.2 15 Norte 28 Norte 0 -- -- 59
2020-01-19 13:00:00 14.4 17 Norte 31 Norte 0 -- -- 65
2020-01-19 12:00:00 14 15 Norte 37 Noroeste 0 -- -- 69
2020-01-19 11:00:00 12.9 20 Norte 34 Noroeste 0 -- -- 74
2020-01-19 10:00:00 11.8 14 Norte 25 Norte 0 -- -- 78
2020-01-19 09:00:00 11.2 13 Noroeste 23 Noroeste 0 -- -- 78
2020-01-19 08:00:00 11.5 11 Norte 30 Noroeste 0 -- -- 76
2020-01-19 07:00:00 12.1 17 Norte 32 Noroeste 0 -- -- 73
2020-01-19 06:00:00 13 14 Noroeste 32 Noroeste 0 -- -- 76
2020-01-19 05:00:00 12.9 11 Noroeste 19 Oeste 0 -- -- 84
2020-01-19 04:00:00 12.7 11 Noroeste 19 Oeste 0 -- -- 85
2020-01-19 03:00:00 13.5 13 Noroeste 35 Norte 0 -- -- 80
2020-01-19 02:00:00 13.6 17 Norte 44 Norte 0.8 -- -- 84
2020-01-19 01:00:00 16.4 25 Oeste 39 Oeste 1.6 -- -- 92
2020-01-19 00:00:00 16.5 20 Oeste 35 Oeste 0.2 -- -- 90
2020-01-18 23:00:00 16.2 33 Oeste 41 Oeste 0 -- -- 93
2020-01-18 22:00:00 16.1 32 Oeste 43 Oeste 0.2 -- -- 93
2020-01-18 21:00:00 16.2 32 Oeste 41 Oeste 0 -- -- 90
2020-01-18 20:00:00 16.1 31 Oeste 42 Oeste 0.6 -- -- 90
2020-01-18 19:00:00 15.9 28 Sudoeste 37 Sudoeste 1.4 -- -- 91
2020-01-18 18:00:00 16.1 30 Sudoeste 36 Sudoeste 0 -- -- 87
2020-01-18 17:00:00 16.1 25 Sudoeste 31 Sudoeste 0 -- -- 84
2020-01-18 16:00:00 16.2 23 Sudoeste 30 Sudoeste 0 -- -- 85
2020-01-18 15:00:00 16 24 Sudoeste 32 Sudoeste 0 -- -- 85
2020-01-18 14:00:00 15.7 24 Sudoeste 30 Sudoeste 0 -- -- 85
2020-01-18 13:00:00 13.8 3 Sur 11 Norte 0 -- -- 95
2020-01-18 12:00:00 12.3 5 Norte 11 Norte 0 -- -- 95
2020-01-18 11:00:00 11.6 7 Norte 11 Norte 0 -- -- 95
2020-01-18 10:00:00 10.8 7 Norte 11 Norte 0 -- -- 95
2020-01-18 09:00:00 10.1 5 Nordeste 10 Norte 0 -- -- 95
2020-01-18 08:00:00 9.6 7 Nordeste 12 Norte 0 -- -- 95
2020-01-18 07:00:00 9.4 4 Norte 10 Nordeste 0 -- -- 95
2020-01-18 06:00:00 9.2 8 Nordeste 13 Nordeste 0 -- -- 95
2020-01-18 05:00:00 10 9 Nordeste 14 Nordeste 0 -- -- 95
2020-01-18 04:00:00 10.6 8 Norte 15 Norte 0 -- -- 94
2020-01-18 03:00:00 10.9 10 Norte 16 Norte 0 -- -- 94
2020-01-18 02:00:00 10.8 5 Nordeste 12 Norte 0 -- -- 94
2020-01-18 01:00:00 10.2 6 Norte 12 Nordeste 0 -- -- 93
2020-01-18 00:00:00 10.2 6 Norte 13 Norte 0 -- -- 92
2020-01-17 23:00:00 10.4 8 Norte 12 Norte 0 -- -- 90
2020-01-17 22:00:00 11.1 7 Norte 11 Nordeste 0 -- -- 91
2020-01-17 21:00:00 11.9 6 Norte 9 Norte 0 -- -- 87
2020-01-17 20:00:00 12.9 6 Nordeste 8 Nordeste 0 -- -- 85
2020-01-17 19:00:00 15.2 4 Sudoeste 6 Sur 0 -- -- 81
2020-01-17 18:00:00 16.8 5 Sur 8 Sudoeste 0 -- -- 76
2020-01-17 17:00:00 16.5 7 Sudoeste 12 Sudoeste 0 -- -- 73
2020-01-17 16:00:00 16.8 12 Sudoeste 16 Sur 0 -- -- 71
2020-01-17 15:00:00 17.4 14 Sur 19 Sur 0 -- -- 72
2020-01-17 14:00:00 16.9 13 Sur 16 Sur 0 -- -- 72
2020-01-17 13:00:00 17.5 13 Sur 15 Sur 0 -- -- 71
2020-01-17 12:00:00 14.5 6 Sur 9 Sur 0 -- -- 85
2020-01-17 11:00:00 10.3 7 Norte 12 Norte 0 -- -- 86
2020-01-17 10:00:00 9.1 9 Norte 12 Norte 0 -- -- 90
2020-01-17 09:00:00 8.1 8 Norte 11 Norte 0 -- -- 92
2020-01-17 08:00:00 7.3 8 Norte 13 Norte 0 -- -- 92
2020-01-17 07:00:00 7.8 9 Norte 13 Norte 0 -- -- 92
2020-01-17 06:00:00 7.3 7 Norte 13 Norte 0 -- -- 92
2020-01-17 05:00:00 7.2 10 Norte 13 Norte 0 -- -- 92
2020-01-17 04:00:00 7 8 Nordeste 13 Norte 0 -- -- 92
2020-01-17 03:00:00 7.3 9 Norte 13 Nordeste 0 -- -- 92
2020-01-17 02:00:00 7.5 9 Norte 13 Norte 0 -- -- 90
2020-01-17 01:00:00 7.9 9 Nordeste 14 Norte 0 -- -- 90
2020-01-17 00:00:00 8.4 9 Nordeste 11 Nordeste 0 -- -- 90
2020-01-16 23:00:00 9.7 8 Norte 10 Norte 0 -- -- 89
2020-01-16 22:00:00 10.1 6 Norte 10 Norte 0 -- -- 87
2020-01-16 21:00:00 11.2 6 Norte 9 Norte 0 -- -- 84
2020-01-16 20:00:00 14.9 9 Sudoeste 13 Sur 0 -- -- 78
2020-01-16 19:00:00 15.4 12 Sur 14 Sur 0 -- -- 78
2020-01-16 18:00:00 16.6 13 Sudoeste 19 Sudoeste 0 -- -- 69
2020-01-16 17:00:00 17.6 17 Sudoeste 22 Sur 0 -- -- 70
2020-01-16 16:00:00 18.4 17 Sur 22 Sur 0 -- -- 63
2020-01-16 15:00:00 18.7 16 Sur 21 Sur 0 -- -- 64
2020-01-16 14:00:00 18.9 16 Sur 22 Sur 0 -- -- 62
2020-01-16 13:00:00 17.3 8 Oeste 15 Oeste 0 -- -- 61
2020-01-16 12:00:00 15.1 8 Norte -- -- -- -- -- 66
2020-01-16 11:00:00 -- 6 Norte 14 Nordeste 0 -- -- --
2020-01-16 10:00:00 9.2 8 Norte 13 Norte 0 -- -- 99
2020-01-16 09:00:00 7.8 8 Norte 12 Norte 0 -- -- 96
2020-01-16 08:00:00 7.5 9 Norte 13 Norte 0 -- -- 96
2020-01-16 07:00:00 6.8 10 Nordeste 15 Norte 0 -- -- 93
2020-01-16 06:00:00 6.1 9 Norte 16 Nordeste 0 -- -- 95
2020-01-16 05:00:00 5.8 10 Norte 14 Norte 0 -- -- 97
2020-01-16 04:00:00 5.9 10 Nordeste 15 Norte 0 -- -- 96
2020-01-16 03:00:00 6.7 9 Norte 17 Norte 0 -- -- 95
2020-01-16 02:00:00 7.6 10 Norte 17 Norte 0 -- -- 94
2020-01-16 01:00:00 7.7 10 Norte 14 Norte 0 -- -- 97
2020-01-16 00:00:00 7.8 10 Norte 14 Nordeste 0 -- -- 96
2020-01-15 23:00:00 8.8 10 Norte 14 Norte 0 -- -- 95
2020-01-15 22:00:00 9.9 9 Norte 13 Nordeste 0 -- -- 94
2020-01-15 21:00:00 11.2 8 Norte 11 Norte 0 -- -- 90
2020-01-15 20:00:00 12.5 7 Norte 8 Norte 0 -- -- 89
2020-01-15 19:00:00 15 3 Sudeste 9 Oeste 0 -- -- 85
2020-01-15 18:00:00 17 8 Oeste 13 Sudoeste 0 -- -- 77
2020-01-15 17:00:00 18.7 10 Sudoeste 15 Sudoeste 0 -- -- 71
2020-01-15 16:00:00 18.8 13 Sudoeste 19 Sudoeste 0 -- -- 70
2020-01-15 15:00:00 18.8 14 Sudoeste 22 Sudoeste 0 -- -- 70
2020-01-15 14:00:00 18.1 17 Sudoeste 24 Sudoeste 0 -- -- 71
2020-01-15 13:00:00 17.7 19 Sudoeste 25 Sudoeste 0 -- -- 71
2020-01-15 12:00:00 17 14 Sur 23 Sudoeste 0 -- -- 75
2020-01-15 11:00:00 14.9 20 Sudoeste 24 Sudoeste 0 -- -- 94
2020-01-15 10:00:00 8.1 4 Sudeste 12 Sur 0 -- -- 100
2020-01-15 09:00:00 6.2 8 Norte 11 Norte 0 -- -- 100
2020-01-15 08:00:00 6.7 10 Nordeste 12 Norte 0 -- -- 100
2020-01-15 07:00:00 6.6 9 Norte 12 Norte 0 -- -- 100
2020-01-15 06:00:00 7.3 9 Norte 10 Norte 0 -- -- 100
2020-01-15 05:00:00 7.3 8 Norte 12 Norte 0 -- -- 100
2020-01-15 04:00:00 7.5 8 Norte 12 Norte 0 -- -- 100
2020-01-15 03:00:00 7.6 9 Norte 12 Nordeste 0 -- -- 100
2020-01-15 02:00:00 8 9 Norte 12 Norte 0 -- -- 99
2020-01-15 01:00:00 8.6 7 Norte 12 Norte 0 -- -- 98
2020-01-15 00:00:00 9.4 7 Norte 11 Norte 0 -- -- 97
2020-01-14 23:00:00 9.9 8 Norte 11 Nordeste 0 -- -- 96
2020-01-14 22:00:00 10.4 6 Norte 10 Norte 0 -- -- 94
2020-01-14 21:00:00 11 5 Nordeste 8 Este 0 -- -- 94
2020-01-14 20:00:00 12.2 5 Nordeste 7 Nordeste 0 -- -- 88
2020-01-14 19:00:00 14.5 5 Noroeste 15 Oeste 0 -- -- 83
2020-01-14 18:00:00 15.5 13 Sudoeste 18 Sudoeste 0 -- -- 83
2020-01-14 17:00:00 16.3 14 Sudoeste 19 Sudoeste 0 -- -- 80
2020-01-14 16:00:00 16.6 13 Sudoeste 17 Sudoeste 0 -- -- 69
2020-01-14 15:00:00 16.8 12 Sudoeste 17 Oeste 0 -- -- 70
2020-01-14 14:00:00 16.1 13 Sudoeste 17 Sudoeste 0 -- -- 78
2020-01-14 13:00:00 16.6 5 Sudoeste 12 Sudoeste 0 -- -- 76
2020-01-14 12:00:00 11.9 5 Nordeste 13 Norte 0 -- -- 98
2020-01-14 11:00:00 9.1 10 Norte 15 Norte 0 -- -- 100
2020-01-14 10:00:00 7.6 8 Norte 14 Norte 0 -- -- 100
2020-01-14 09:00:00 7 10 Nordeste 14 Norte 0 -- -- 100
2020-01-14 08:00:00 7 9 Norte 14 Norte 0 -- -- 100
2020-01-14 07:00:00 6.9 8 Norte 14 Nordeste 0 -- -- 100
2020-01-14 06:00:00 7.3 7 Norte 14 Norte 0 -- -- 100
2020-01-14 05:00:00 7.2 8 Norte 13 Nordeste 0 -- -- 100
2020-01-14 04:00:00 7.4 8 Nordeste 13 Nordeste 0 -- -- 100
2020-01-14 03:00:00 7.4 9 Norte 14 Norte 0 -- -- 100
2020-01-14 02:00:00 7.7 5 Norte 13 Nordeste 0 -- -- 99
2020-01-14 01:00:00 8.3 8 Norte 13 Norte 0 -- -- 99
2020-01-14 00:00:00 8.4 8 Nordeste 12 Nordeste 0 -- -- 98
2020-01-13 23:00:00 8.8 8 Nordeste 12 Norte 0 -- -- 95
2020-01-13 22:00:00 10.4 5 Nordeste 11 Norte 0 -- -- 91
2020-01-13 21:00:00 11.2 8 Norte 12 Norte 0 -- -- 91
2020-01-13 20:00:00 12.5 6 Norte 16 Sur 0 -- -- 86
2020-01-13 19:00:00 14.8 12 Sudeste 21 Sur 0 -- -- 84
2020-01-13 18:00:00 15.8 18 Sur 22 Sur 0 -- -- 78
2020-01-13 17:00:00 17.1 18 Sur 23 Sur 0 -- -- 74
2020-01-13 16:00:00 17.9 15 Sur 21 Sur 0 -- -- 71
2020-01-13 15:00:00 17.8 16 Sur 20 Sur 0 -- -- 71
2020-01-13 14:00:00 18.7 14 Sur 18 Sur 0 -- -- 68
2020-01-13 13:00:00 18.4 7 Sudeste 13 Este 0 -- -- 64
2020-01-13 12:00:00 17 6 Sudeste 14 Este 0 -- -- 70
2020-01-13 11:00:00 15 8 Este 19 Este 0 -- -- 79
2020-01-13 10:00:00 11.4 6 Norte 15 Norte 0 -- -- 93
2020-01-13 09:00:00 9.8 6 Norte 14 Este 0 -- -- 94
2020-01-13 08:00:00 9.9 4 Nordeste 14 Norte 0 -- -- 95
2020-01-13 07:00:00 10.2 8 Norte 16 Norte 0 -- -- 94
2020-01-13 06:00:00 9.4 8 Norte 14 Nordeste 0 -- -- 97
2020-01-13 05:00:00 9.4 9 Norte 17 Nordeste 0 -- -- 99
2020-01-13 04:00:00 8.8 9 Norte 14 Norte 0 -- -- 99
2020-01-13 03:00:00 8.8 8 Norte 12 Norte 0 -- -- 99
2020-01-13 02:00:00 8.9 7 Norte 15 Norte 0 -- -- 98
2020-01-13 01:00:00 9.1 7 Norte 14 Norte 0 -- -- 97
2020-01-13 00:00:00 9.7 9 Norte 16 Norte 0 -- -- 95
2020-01-12 23:00:00 10.1 8 Norte 14 Norte 0 -- -- 92
2020-01-12 22:00:00 10.7 9 Norte 19 Nordeste 0 -- -- 91
2020-01-12 21:00:00 12.1 9 Nordeste 17 Nordeste 0 -- -- 85
2020-01-12 20:00:00 13 9 Nordeste 19 Nordeste 0 -- -- 76
2020-01-12 19:00:00 13.8 10 Este 17 Este 0 -- -- 68
2020-01-12 18:00:00 16.5 11 Este 17 Este 0 -- -- 63
2020-01-12 17:00:00 18.2 10 Este 20 Este 0 -- -- 56
2020-01-12 16:00:00 18.4 8 Este 20 Este 0 -- -- 57
2020-01-12 15:00:00 18.2 9 Este 22 Nordeste 0 -- -- 58
2020-01-12 14:00:00 17.6 14 Nordeste 23 Nordeste 0 -- -- 60
2020-01-12 13:00:00 17 13 Este 21 Este 0 -- -- 67
2020-01-12 12:00:00 15.9 14 Este 21 Este 0 -- -- 73
2020-01-12 11:00:00 13.5 9 Norte 17 Nordeste 0 -- -- 86
2020-01-12 10:00:00 11.4 8 Norte 14 Nordeste 0 -- -- 91
2020-01-12 09:00:00 9.8 10 Norte 25 Nordeste 0 -- -- 94
2020-01-12 08:00:00 10.3 18 Nordeste 27 Nordeste 0 -- -- 92
2020-01-12 07:00:00 10.2 13 Norte 21 Nordeste 0 -- -- 94
2020-01-12 06:00:00 10.5 15 Nordeste 23 Nordeste 0 -- -- 94
2020-01-12 05:00:00 10.2 9 Norte 15 Norte 0 -- -- 93
2020-01-12 04:00:00 10.9 10 Norte 17 Nordeste 0 -- -- 92
2020-01-12 03:00:00 10 6 Norte 15 Nordeste 0 -- -- 93
2020-01-12 02:00:00 9.4 11 Nordeste 21 Este 0 -- -- 94
2020-01-12 01:00:00 9.7 17 Este 18 Este 0 -- -- 91
2020-01-12 00:00:00 10.4 13 Nordeste 19 Nordeste 0 -- -- 90
2020-01-11 23:00:00 10.6 13 Nordeste 19 Nordeste 0 -- -- 88
2020-01-11 22:00:00 11.4 14 Nordeste 21 Nordeste 0 -- -- 87
2020-01-11 21:00:00 12.3 17 Nordeste 23 Nordeste 0 -- -- 83
2020-01-11 20:00:00 13.5 8 Nordeste 13 Norte 0 -- -- 77
2020-01-11 19:00:00 13.2 5 Nordeste 17 Este 0 -- -- 77
2020-01-11 18:00:00 15.3 13 Este 29 Este 0 -- -- 70
2020-01-11 17:00:00 16.4 23 Este 33 Este 0 -- -- 65
2020-01-11 16:00:00 16.3 16 Sudeste 33 Sudeste 0 -- -- 67
2020-01-11 15:00:00 16 19 Este 30 Este 0 -- -- 66
2020-01-11 14:00:00 17.4 20 Este 30 Este 0 -- -- 60
2020-01-11 13:00:00 16.7 13 Este 22 Sudeste 0 -- -- 67
2020-01-11 12:00:00 15.7 9 Nordeste 17 Este 0 -- -- 77
2020-01-11 11:00:00 12.5 8 Nordeste 14 Norte 0 -- -- 89
2020-01-11 10:00:00 9.5 7 Norte 13 Norte 0 -- -- 94
2020-01-11 09:00:00 8.4 9 Norte 14 Norte 0 -- -- 91
2020-01-11 08:00:00 7.6 8 Norte 14 Norte 0 -- -- 91
2020-01-11 07:00:00 7.3 7 Norte 13 Nordeste 0 -- -- 92
2020-01-11 06:00:00 6.3 8 Norte 13 Norte 0 -- -- 96
2020-01-11 05:00:00 7.2 6 Norte 14 Nordeste 0 -- -- 95
2020-01-11 04:00:00 7.6 7 Nordeste 10 Nordeste 0 -- -- 94
2020-01-11 03:00:00 7.7 8 Norte 13 Norte 0 -- -- 94
2020-01-11 02:00:00 7.9 8 Nordeste 14 Nordeste 0 -- -- 96
2020-01-11 01:00:00 7.9 12 Nordeste 14 Nordeste 0 -- -- 94
2020-01-11 00:00:00 8.7 7 Nordeste 12 Nordeste 0 -- -- 94
2020-01-10 23:00:00 8.9 11 Nordeste 14 Nordeste 0 -- -- 93
2020-01-10 22:00:00 10 8 Nordeste 16 Norte 0 -- -- 90
2020-01-10 21:00:00 11.1 10 Nordeste 18 Norte 0 -- -- 86
2020-01-10 20:00:00 11.9 10 Norte 18 Norte 0 -- -- 82
2020-01-10 19:00:00 13 14 Noroeste 20 Norte 0 -- -- 79
2020-01-10 18:00:00 14.9 10 Noroeste 19 Noroeste 0 -- -- 71
2020-01-10 17:00:00 15.5 10 Noroeste 18 Noroeste 0 -- -- 68
2020-01-10 16:00:00 15.2 12 Noroeste 24 Noroeste 0 -- -- 69
2020-01-10 15:00:00 15.1 13 Noroeste 21 Noroeste 0 -- -- 71
2020-01-10 14:00:00 15 5 Sudoeste 13 Sudoeste 0 -- -- 79
2020-01-10 13:00:00 13.3 7 Noroeste 14 Norte 0 -- -- 86
2020-01-10 12:00:00 12.7 4 Noroeste 12 Nordeste 0 -- -- 94
2020-01-10 11:00:00 11.2 6 Nordeste 10 Norte 0 -- -- 100
2020-01-10 10:00:00 9.1 5 Nordeste 8 Norte 0 -- -- 100
2020-01-10 09:00:00 7.6 5 Nordeste 9 Nordeste 0 -- -- 100
2020-01-10 08:00:00 7 5 Norte 10 Nordeste 0 -- -- 100
2020-01-10 07:00:00 7 0 Calma 12 Norte 0 -- -- 100
2020-01-10 06:00:00 6.7 9 Norte 13 Norte 0 -- -- 100
2020-01-10 05:00:00 7.4 3 Sudeste 9 Nordeste 0 -- -- 100
2020-01-10 04:00:00 8 6 Norte 11 Noroeste 0 -- -- 100
2020-01-10 03:00:00 8.5 7 Nordeste 12 Norte 0 -- -- 100
2020-01-10 02:00:00 8.9 7 Norte 13 Norte 0 -- -- 99
2020-01-10 01:00:00 9.5 7 Norte 10 Norte 0 -- -- 98
2020-01-10 00:00:00 9.7 5 Norte 10 Norte 0 -- -- 97
2020-01-09 23:00:00 10.8 5 Nordeste 6 Nordeste 0 -- -- 94
2020-01-09 22:00:00 11.6 4 Este 10 Este 0 -- -- 93
2020-01-09 21:00:00 12.4 8 Nordeste 17 Noroeste 0 -- -- 89
2020-01-09 20:00:00 13.4 9 Norte 18 Noroeste 0 -- -- 87
2020-01-09 19:00:00 15.1 12 Oeste 23 Sudoeste 0 -- -- 79
2020-01-09 18:00:00 16.6 12 Sudoeste 19 Sudoeste 0 -- -- 74
2020-01-09 17:00:00 17.3 6 Oeste 18 Sur 0 -- -- 69
2020-01-09 16:00:00 19.1 10 Sur 19 Sur 0 -- -- 67
2020-01-09 15:00:00 18.8 12 Sur 22 Sur 0 -- -- 69
2020-01-09 14:00:00 18.2 10 Sudoeste 14 Sudoeste 0 -- -- 68
2020-01-09 13:00:00 17.8 11 Sudoeste 13 Sudoeste 0 -- -- 70
2020-01-09 12:00:00 16.2 5 Noroeste 12 Noroeste 0 -- -- 74
2020-01-09 11:00:00 13.7 5 Norte 12 Norte 0 -- -- 87
2020-01-09 10:00:00 11.1 7 Norte 15 Norte 0 -- -- 94
2020-01-09 09:00:00 9.5 8 Norte 13 Nordeste 0 -- -- 94
2020-01-09 08:00:00 11.1 6 Nordeste 12 Este 0 -- -- 89
2020-01-09 07:00:00 11.1 5 Nordeste 15 Este 0 -- -- 90
2020-01-09 06:00:00 11.6 5 Este 27 Sudeste 0 -- -- 89
2020-01-09 05:00:00 11.7 11 Este 25 Sudeste 0 -- -- 92
2020-01-09 04:00:00 10.7 4 Nordeste 18 Este 0 -- -- 94
2020-01-09 03:00:00 11.1 6 Norte 12 Nordeste 0 -- -- 95
2020-01-09 02:00:00 10.8 6 Norte 12 Norte 0 -- -- 95
2020-01-09 01:00:00 10.8 7 Norte 11 Nordeste 0 -- -- 95
2020-01-09 00:00:00 10.4 6 Norte 11 Norte 0 -- -- 96
2020-01-08 23:00:00 10.4 6 Norte 13 Norte 0 -- -- 95
2020-01-08 22:00:00 10.8 7 Norte 13 Norte 0 -- -- 95
2020-01-08 21:00:00 10.8 7 Norte 11 Nordeste 0 -- -- 95
2020-01-08 20:00:00 11.5 8 Nordeste 9 Nordeste 0 -- -- 93
2020-01-08 19:00:00 14.7 5 Noroeste 13 Oeste 0 -- -- 85
2020-01-08 18:00:00 16.3 11 Oeste 13 Oeste 0 -- -- 83
2020-01-08 17:00:00 16.8 12 Oeste 16 Oeste 0 -- -- 80
2020-01-08 16:00:00 17.2 14 Sudoeste 17 Sudoeste 0 -- -- 76
2020-01-08 15:00:00 17.2 13 Oeste 15 Oeste 0 -- -- 73
2020-01-08 14:00:00 17.8 4 Nordeste 11 Nordeste 0 -- -- 62
2020-01-08 13:00:00 15.8 4 Este 10 Nordeste 0 -- -- 72
2020-01-08 12:00:00 12.5 6 Nordeste 12 Nordeste 0 -- -- 96
2020-01-08 11:00:00 9.2 8 Nordeste 16 Norte 0 -- -- 100
2020-01-08 10:00:00 7.2 9 Norte 14 Norte 0 -- -- 100
2020-01-08 09:00:00 4.9 8 Norte 13 Nordeste 0 -- -- 100
2020-01-08 08:00:00 6 8 Norte 12 Nordeste 0 -- -- 100
2020-01-08 07:00:00 6.3 11 Nordeste 13 Nordeste 0 -- -- 100
2020-01-08 06:00:00 7.4 8 Norte 10 Nordeste 0 -- -- 99
2020-01-08 05:00:00 8.3 2 Nordeste 12 Norte 0 -- -- 98
2020-01-08 04:00:00 9 7 Norte 12 Norte 0 -- -- 97
2020-01-08 03:00:00 9.7 6 Norte 14 Nordeste 0 -- -- 97
2020-01-08 02:00:00 10.1 9 Norte 17 Norte 0 -- -- 96
2020-01-08 01:00:00 10.3 9 Noroeste 14 Norte 0 -- -- 95
2020-01-08 00:00:00 10.2 7 Norte 17 Norte 0 -- -- 94
2020-01-07 23:00:00 10.5 7 Norte 14 Norte 0 -- -- 93
2020-01-07 22:00:00 11.2 6 Norte 16 Norte 0 -- -- 89
2020-01-07 21:00:00 12.2 10 Norte 27 Nordeste 0 -- -- 86
2020-01-07 20:00:00 12.8 15 Este 32 Este 0 -- -- 84
2020-01-07 19:00:00 14.2 3 Norte 21 Este 0 -- -- 78
2020-01-07 18:00:00 16.1 9 Este 23 Este 0 -- -- 67
2020-01-07 17:00:00 17.6 13 Este 29 Este 0 -- -- 63
2020-01-07 16:00:00 18 19 Este 29 Este 0 -- -- 63
2020-01-07 15:00:00 18.2 15 Este 31 Este 0 -- -- 66
2020-01-07 14:00:00 17.9 19 Este 31 Sudeste 0 -- -- 67
2020-01-07 13:00:00 17.3 14 Sudeste 33 Este 0 -- -- 69
2020-01-07 12:00:00 16.1 14 Este 40 Este 0 -- -- 73
2020-01-07 11:00:00 15 16 Este 24 Este 0 -- -- 76
2020-01-07 10:00:00 13.2 15 Este 42 Este 0 -- -- 87
2020-01-07 09:00:00 11.8 20 Nordeste 37 Este 0 -- -- 91
2020-01-07 08:00:00 9.5 6 Nordeste 16 Nordeste 0 -- -- 95
2020-01-07 07:00:00 10 8 Norte 17 Norte 0 -- -- 94
2020-01-07 06:00:00 10.3 8 Norte 21 Nordeste 0 -- -- 93
2020-01-07 05:00:00 11.5 12 Nordeste 24 Nordeste 0 -- -- 91
2020-01-07 04:00:00 10.6 10 Norte 16 Norte 0 -- -- 94
2020-01-07 03:00:00 11 8 Nordeste 15 Nordeste 0 -- -- 94
2020-01-07 02:00:00 11.2 11 Nordeste 20 Nordeste 0 -- -- 94
2020-01-07 01:00:00 10.5 15 Nordeste 19 Nordeste 0 -- -- 94
2020-01-07 00:00:00 11.6 16 Este 23 Nordeste 0 -- -- 91
2020-01-06 23:00:00 11.2 12 Nordeste 18 Nordeste 0 -- -- 91
2020-01-06 22:00:00 11 6 Nordeste 12 Norte 0 -- -- 90
2020-01-06 21:00:00 10.8 8 Norte 14 Nordeste 0 -- -- 90
2020-01-06 20:00:00 11.3 10 Nordeste 14 Nordeste 0 -- -- 86
2020-01-06 19:00:00 12.8 7 Nordeste 17 Este 0 -- -- 79
2020-01-06 18:00:00 15.1 13 Este 27 Este 0 -- -- 71
2020-01-06 17:00:00 16.5 17 Este 27 Sudeste 0 -- -- 67
2020-01-06 16:00:00 16.2 17 Este 27 Este 0 -- -- 70
2020-01-06 15:00:00 15.8 19 Este 29 Este 0 -- -- 71
2020-01-06 14:00:00 16.1 19 Este 29 Este 0 -- -- 72
2020-01-06 13:00:00 15.8 17 Este 33 Este 0 -- -- 74
2020-01-06 12:00:00 16 21 Este 32 Este 0 -- -- 75
2020-01-06 11:00:00 15 14 Nordeste 23 Este 0 -- -- 80
2020-01-06 10:00:00 13.3 5 Nordeste 26 Nordeste 0 -- -- 86